createdAt,value
2023-03-02T08:04:17.317Z,5.30
2023-03-02T08:06:45.193Z,4.40
2023-03-02T08:09:14.620Z,4.40
2023-03-02T08:11:44.807Z,4.50
2023-03-02T08:14:12.710Z,4.60
2023-03-02T08:16:40.784Z,4.60
2023-03-02T08:19:08.740Z,4.70
2023-03-02T08:21:37.913Z,4.70
2023-03-02T08:24:06.586Z,4.70
2023-03-02T08:26:34.552Z,4.80
2023-03-02T08:29:02.513Z,4.80
2023-03-02T08:31:30.572Z,4.80
2023-03-02T08:33:59.418Z,4.90
2023-03-02T08:36:27.327Z,4.90
2023-03-02T08:38:56.478Z,4.90
2023-03-02T08:41:26.062Z,4.90
2023-03-02T08:43:54.404Z,4.90
2023-03-02T08:46:22.855Z,5.70
2023-03-02T08:48:51.527Z,5.00
2023-03-02T08:51:22.670Z,5.20
2023-03-02T08:53:54.664Z,5.10
2023-03-02T08:56:26.033Z,5.80
2023-03-02T08:58:55.239Z,5.10
2023-03-02T09:01:25.128Z,5.10
2023-03-02T09:03:53.413Z,5.20
2023-03-02T09:06:21.444Z,5.20
2023-03-02T09:08:50.038Z,5.50
2023-03-02T09:11:18.414Z,5.30
2023-03-02T09:13:47.677Z,5.40
2023-03-02T09:16:15.955Z,5.30
2023-03-02T09:18:43.797Z,5.30
2023-03-02T09:21:11.696Z,5.30
2023-03-02T09:23:39.887Z,5.40
2023-03-02T09:26:08.045Z,5.40
2023-03-02T09:28:36.959Z,5.70
2023-03-02T09:31:08.741Z,6.00
2023-03-02T09:33:37.216Z,5.50
2023-03-02T09:36:07.672Z,5.50
2023-03-02T09:38:35.606Z,5.50
2023-03-02T09:41:29.800Z,5.60
2023-03-02T09:44:10.464Z,5.50
2023-03-02T09:46:46.180Z,5.60
2023-03-02T09:49:24.029Z,6.40
2023-03-02T09:52:03.400Z,5.60
2023-03-02T09:54:32.280Z,5.60
2023-03-02T09:57:00.841Z,5.70
2023-03-02T09:59:32.068Z,5.70
2023-03-02T10:02:06.183Z,5.70
2023-03-02T10:04:42.207Z,5.70
2023-03-02T10:07:13.845Z,5.80
2023-03-02T10:09:42.737Z,5.80
2023-03-02T10:12:39.685Z,5.80
2023-03-02T10:15:15.421Z,5.90
2023-03-02T10:17:55.693Z,5.90
2023-03-02T10:20:34.170Z,5.90
2023-03-02T10:23:11.572Z,6.20
2023-03-02T10:25:47.237Z,6.00
2023-03-02T10:28:20.015Z,6.00
2023-03-02T10:30:51.943Z,6.10
2023-03-02T10:33:23.216Z,6.10
2023-03-02T10:35:54.085Z,6.10
2023-03-02T10:38:23.756Z,6.10
2023-03-02T10:40:58.232Z,6.60
2023-03-02T10:43:31.405Z,6.60
2023-03-02T10:46:01.331Z,6.30
2023-03-02T10:48:31.054Z,6.30
2023-03-02T10:51:00.427Z,6.30
2023-03-02T10:53:29.123Z,6.40
2023-03-02T10:55:57.242Z,6.40
2023-03-02T10:58:30.743Z,6.50
2023-03-02T11:01:00.755Z,6.50
2023-03-02T11:03:30.500Z,6.50
2023-03-02T11:06:00.445Z,6.50
2023-03-02T11:08:31.666Z,6.60
2023-03-02T11:11:01.777Z,7.00
2023-03-02T11:13:32.478Z,6.10
2023-03-02T11:16:01.742Z,6.60
2023-03-02T11:18:35.595Z,6.70
2023-03-02T11:21:06.582Z,6.60
2023-03-02T11:23:44.741Z,6.80
2023-03-02T11:26:19.324Z,7.70
2023-03-02T11:28:52.822Z,6.90
2023-03-02T11:31:30.922Z,7.00
2023-03-02T11:34:18.014Z,7.20
2023-03-02T11:36:57.416Z,7.10
2023-03-02T11:39:32.703Z,6.90
2023-03-02T11:42:00.793Z,7.20
2023-03-02T11:44:29.729Z,8.70
2023-03-02T11:47:01.710Z,7.10
2023-03-02T11:49:38.797Z,7.00
2023-03-02T11:52:17.117Z,7.20
2023-03-02T11:54:47.718Z,7.30
2023-03-02T11:57:22.079Z,8.80
2023-03-02T11:59:51.651Z,8.70
2023-03-02T12:02:20.336Z,8.00
2023-03-02T12:04:50.386Z,7.10
2023-03-02T12:07:22.883Z,7.90
2023-03-02T12:10:06.483Z,9.50
2023-03-02T12:12:44.082Z,9.20
2023-03-02T12:15:38.208Z,7.60
2023-03-02T12:18:29.016Z,7.70
2023-03-02T12:21:03.114Z,7.70
2023-03-02T12:23:32.245Z,7.80
2023-03-02T12:26:06.922Z,8.20
2023-03-02T12:28:36.543Z,9.90
2023-03-02T12:31:11.880Z,8.00
2023-03-02T12:33:49.107Z,8.10
2023-03-02T12:36:24.429Z,8.40
2023-03-02T12:39:04.902Z,10.00
2023-03-02T12:41:59.475Z,9.00
2023-03-02T12:44:43.900Z,11.00
2023-03-02T12:49:52.054Z,11.40
2023-03-02T12:55:01.923Z,13.00
2023-03-02T12:57:30.209Z,17.20
2023-03-02T13:00:01.100Z,15.10
2023-03-02T13:02:30.355Z,15.80
2023-03-02T13:05:00.586Z,16.20
2023-03-02T13:07:36.230Z,18.50
2023-03-02T13:10:09.479Z,17.80
2023-03-02T13:12:38.427Z,18.00
2023-03-02T13:15:16.326Z,18.40
2023-03-02T13:17:45.142Z,18.60
2023-03-02T13:20:15.781Z,18.70
2023-03-02T13:22:45.177Z,19.30
2023-03-02T13:25:24.540Z,18.20
2023-03-02T13:27:57.628Z,19.10
2023-03-02T13:30:29.272Z,19.30
2023-03-02T13:33:02.797Z,19.50
2023-03-02T13:35:32.523Z,20.00
2023-03-02T13:38:05.765Z,20.20
2023-03-02T13:43:08.639Z,19.60
2023-03-02T13:45:37.012Z,19.50
2023-03-02T13:48:15.694Z,19.20
2023-03-02T13:50:53.607Z,18.70
2023-03-02T13:53:24.357Z,18.60
2023-03-02T13:55:54.077Z,19.30
2023-03-02T13:58:23.947Z,19.70
2023-03-02T14:00:52.489Z,19.30
2023-03-02T14:03:26.515Z,19.50
2023-03-02T14:05:55.462Z,19.60
2023-03-02T14:10:57.201Z,19.90
2023-03-02T14:13:27.741Z,19.60
2023-03-02T14:15:56.317Z,20.00
2023-03-02T14:18:32.077Z,19.60
2023-03-02T14:21:00.166Z,20.00
2023-03-02T14:23:29.651Z,21.10
2023-03-02T14:25:58.281Z,20.20
2023-03-02T14:28:29.077Z,20.30
2023-03-02T14:30:58.881Z,20.40
2023-03-02T14:33:27.438Z,20.50
2023-03-02T14:35:57.814Z,21.00
2023-03-02T14:38:28.334Z,20.70
2023-03-02T14:40:58.280Z,20.40
2023-03-02T14:43:27.068Z,21.00
2023-03-02T14:45:55.077Z,20.60
2023-03-02T14:48:22.977Z,20.70
2023-03-02T14:50:52.503Z,21.40
2023-03-02T14:53:30.680Z,20.80
2023-03-02T14:56:00.791Z,21.90
2023-03-02T14:58:32.354Z,20.60
2023-03-02T15:01:00.177Z,20.90
2023-03-02T15:03:29.411Z,21.50
2023-03-02T15:06:02.116Z,20.70
2023-03-02T15:08:30.782Z,20.50
2023-03-02T15:11:00.637Z,20.70
2023-03-02T15:13:28.528Z,19.40
2023-03-02T15:15:56.543Z,18.80
2023-03-02T15:18:24.392Z,18.50
2023-03-02T15:20:52.225Z,18.30
2023-03-02T15:23:20.277Z,17.90
2023-03-02T15:25:48.341Z,17.60
2023-03-02T15:28:18.969Z,17.30
2023-03-02T15:30:47.532Z,17.00
2023-03-02T15:33:15.752Z,16.20
2023-03-02T15:35:44.363Z,16.40
2023-03-02T15:38:12.374Z,16.10
2023-03-02T15:40:40.306Z,15.90
2023-03-02T15:43:08.195Z,14.60
2023-03-02T15:45:37.742Z,15.50
2023-03-02T15:48:06.010Z,16.00
2023-03-02T15:50:33.956Z,14.60
2023-03-02T15:53:01.817Z,13.00
2023-03-02T15:55:29.713Z,14.10
2023-03-02T15:57:59.818Z,15.40
2023-03-02T16:00:28.245Z,14.00
2023-03-02T21:14:21.211Z,6.60
2023-03-02T21:16:49.069Z,5.80
2023-03-02T21:19:18.838Z,5.80
2023-03-02T21:21:47.036Z,5.80
2023-03-02T21:24:17.585Z,5.80
2023-03-02T21:26:45.934Z,5.80
2023-03-02T21:29:14.507Z,5.80
2023-03-02T21:31:44.819Z,5.80
2023-03-02T21:34:13.719Z,5.70
2023-03-02T21:36:42.018Z,5.80
2023-03-02T21:39:11.738Z,5.70
2023-03-02T21:41:40.219Z,6.30
2023-03-02T21:44:08.292Z,5.70
2023-03-02T21:46:38.171Z,5.70
2023-03-02T21:49:07.672Z,5.70
2023-03-02T21:51:35.657Z,5.80
2023-03-02T21:54:03.478Z,5.60
2023-03-02T21:56:31.283Z,5.60
2023-03-02T21:58:59.256Z,5.60
2023-03-02T22:01:27.526Z,5.50
2023-03-02T22:03:55.547Z,5.50
2023-03-02T22:06:27.291Z,5.50
2023-03-02T22:08:55.646Z,5.50
2023-03-02T22:11:25.887Z,5.50
2023-03-02T22:13:55.953Z,5.50
2023-03-02T22:16:26.028Z,5.50
2023-03-02T22:18:56.069Z,5.50
2023-03-02T22:21:40.750Z,5.40
2023-03-02T22:24:18.817Z,5.40
2023-03-02T22:26:48.334Z,5.50
2023-03-02T22:29:18.824Z,5.40
2023-03-02T22:31:49.331Z,5.50
2023-03-02T22:34:21.493Z,5.50
2023-03-02T22:36:50.636Z,5.40
2023-03-02T22:39:27.941Z,5.40
